sensor_id;sensor_type;location;lat;lon;timestamp;P1;durP1;ratioP1;P2;durP2;ratioP2
7879;SDS011;3985;49.366;2.738;2023-02-01T00:02:05;6.75;;;3.25;;
7879;SDS011;3985;49.366;2.738;2023-02-01T00:04:33;6.75;;;4.00;;
7879;SDS011;3985;49.366;2.738;2023-02-01T00:07:00;5.25;;;4.00;;
7879;SDS011;3985;49.366;2.738;2023-02-01T00:09:27;7.25;;;4.50;;
7879;SDS011;3985;49.366;2.738;2023-02-01T00:11:56;5.50;;;5.50;;
7879;SDS011;3985;49.366;2.738;2023-02-01T00:14:26;6.25;;;2.50;;
7879;SDS011;3985;49.366;2.738;2023-02-01T00:16:54;5.75;;;4.00;;
7879;SDS011;3985;49.366;2.738;2023-02-01T00:19:22;3.50;;;3.50;;
7879;SDS011;3985;49.366;2.738;2023-02-01T00:21:49;8.25;;;4.00;;
7879;SDS011;3985;49.366;2.738;2023-02-01T00:24:16;6.25;;;3.50;;
7879;SDS011;3985;49.366;2.738;2023-02-01T00:26:44;3.50;;;2.75;;
7879;SDS011;3985;49.366;2.738;2023-02-01T00:29:15;6.00;;;3.00;;
7879;SDS011;3985;49.366;2.738;2023-02-01T00:31:44;4.00;;;4.00;;
7879;SDS011;3985;49.366;2.738;2023-02-01T00:34:12;3.75;;;3.75;;
7879;SDS011;3985;49.366;2.738;2023-02-01T00:36:41;2.50;;;2.50;;
7879;SDS011;3985;49.366;2.738;2023-02-01T00:39:09;2.25;;;2.25;;
7879;SDS011;3985;49.366;2.738;2023-02-01T00:41:37;1.00;;;0.50;;
7879;SDS011;3985;49.366;2.738;2023-02-01T00:44:05;3.00;;;3.00;;
7879;SDS011;3985;49.366;2.738;2023-02-01T00:46:34;4.50;;;3.00;;
7879;SDS011;3985;49.366;2.738;2023-02-01T00:49:02;3.25;;;3.25;;
7879;SDS011;3985;49.366;2.738;2023-02-01T00:51:32;3.00;;;3.00;;
7879;SDS011;3985;49.366;2.738;2023-02-01T00:54:00;6.00;;;2.00;;
7879;SDS011;3985;49.366;2.738;2023-02-01T00:56:28;3.25;;;2.50;;
7879;SDS011;3985;49.366;2.738;2023-02-01T00:58:56;1.00;;;1.00;;
7879;SDS011;3985;49.366;2.738;2023-02-01T01:01:24;4.50;;;3.75;;
7879;SDS011;3985;49.366;2.738;2023-02-01T01:03:55;2.75;;;2.75;;
7879;SDS011;3985;49.366;2.738;2023-02-01T01:06:24;2.75;;;2.75;;
7879;SDS011;3985;49.366;2.738;2023-02-01T01:08:52;2.50;;;2.00;;
7879;SDS011;3985;49.366;2.738;2023-02-01T01:11:21;5.00;;;3.75;;
7879;SDS011;3985;49.366;2.738;2023-02-01T01:13:51;3.75;;;3.00;;
7879;SDS011;3985;49.366;2.738;2023-02-01T01:16:20;4.50;;;3.75;;
7879;SDS011;3985;49.366;2.738;2023-02-01T01:18:48;3.50;;;2.00;;
7879;SDS011;3985;49.366;2.738;2023-02-01T01:21:17;4.50;;;3.00;;
7879;SDS011;3985;49.366;2.738;2023-02-01T01:23:45;3.25;;;3.25;;
7879;SDS011;3985;49.366;2.738;2023-02-01T01:26:14;4.00;;;4.00;;
7879;SDS011;3985;49.366;2.738;2023-02-01T01:28:43;4.00;;;2.50;;
7879;SDS011;3985;49.366;2.738;2023-02-01T01:31:11;8.00;;;3.00;;
7879;SDS011;3985;49.366;2.738;2023-02-01T01:33:40;8.25;;;2.75;;
7879;SDS011;3985;49.366;2.738;2023-02-01T01:36:09;2.00;;;2.00;;
7879;SDS011;3985;49.366;2.738;2023-02-01T01:38:39;4.25;;;3.75;;
7879;SDS011;3985;49.366;2.738;2023-02-01T01:41:07;4.00;;;4.00;;
7879;SDS011;3985;49.366;2.738;2023-02-01T01:43:49;6.25;;;5.25;;
7879;SDS011;3985;49.366;2.738;2023-02-01T01:46:18;7.75;;;5.00;;
7879;SDS011;3985;49.366;2.738;2023-02-01T01:48:48;5.00;;;4.50;;
7879;SDS011;3985;49.366;2.738;2023-02-01T01:51:19;6.00;;;6.00;;
7879;SDS011;3985;49.366;2.738;2023-02-01T01:53:52;5.00;;;3.00;;
7879;SDS011;3985;49.366;2.738;2023-02-01T01:56:23;3.25;;;3.25;;
7879;SDS011;3985;49.366;2.738;2023-02-01T01:58:53;9.25;;;5.50;;
7879;SDS011;3985;49.366;2.738;2023-02-01T02:01:21;2.25;;;2.25;;
7879;SDS011;3985;49.366;2.738;2023-02-01T02:03:49;3.00;;;3.00;;
7879;SDS011;3985;49.366;2.738;2023-02-01T02:06:20;5.75;;;4.00;;
7879;SDS011;3985;49.366;2.738;2023-02-01T02:08:55;1.00;;;1.00;;
7879;SDS011;3985;49.366;2.738;2023-02-01T02:11:22;3.25;;;3.00;;
7879;SDS011;3985;49.366;2.738;2023-02-01T02:13:52;5.25;;;2.00;;
7879;SDS011;3985;49.366;2.738;2023-02-01T02:19:43;8.25;;;4.50;;
7879;SDS011;3985;49.366;2.738;2023-02-01T02:22:31;11.25;;;6.75;;
7879;SDS011;3985;49.366;2.738;2023-02-01T02:28:15;5.50;;;3.75;;
7879;SDS011;3985;49.366;2.738;2023-02-01T02:33:54;3.00;;;3.00;;
7879;SDS011;3985;49.366;2.738;2023-02-01T02:36:29;7.50;;;3.25;;
7879;SDS011;3985;49.366;2.738;2023-02-01T02:39:04;8.25;;;3.00;;
7879;SDS011;3985;49.366;2.738;2023-02-01T02:41:39;4.25;;;4.25;;
7879;SDS011;3985;49.366;2.738;2023-02-01T02:44:32;7.00;;;2.75;;
7879;SDS011;3985;49.366;2.738;2023-02-01T02:47:32;2.25;;;2.25;;
7879;SDS011;3985;49.366;2.738;2023-02-01T02:50:11;7.50;;;2.25;;
7879;SDS011;3985;49.366;2.738;2023-02-01T02:53:02;3.25;;;1.00;;
7879;SDS011;3985;49.366;2.738;2023-02-01T02:55:54;5.00;;;3.75;;
7879;SDS011;3985;49.366;2.738;2023-02-01T02:58:40;5.00;;;3.00;;
7879;SDS011;3985;49.366;2.738;2023-02-01T03:01:25;4.25;;;4.25;;
7879;SDS011;3985;49.366;2.738;2023-02-01T03:04:10;8.25;;;3.00;;
7879;SDS011;3985;49.366;2.738;2023-02-01T03:06:44;4.50;;;3.75;;
7879;SDS011;3985;49.366;2.738;2023-02-01T03:09:13;6.50;;;4.00;;
7879;SDS011;3985;49.366;2.738;2023-02-01T03:11:44;4.25;;;4.25;;
7879;SDS011;3985;49.366;2.738;2023-02-01T03:14:30;9.50;;;6.00;;
7879;SDS011;3985;49.366;2.738;2023-02-01T03:17:01;5.25;;;3.75;;
7879;SDS011;3985;49.366;2.738;2023-02-01T03:19:32;8.00;;;4.50;;
7879;SDS011;3985;49.366;2.738;2023-02-01T03:22:04;6.50;;;5.75;;
7879;SDS011;3985;49.366;2.738;2023-02-01T03:24:34;3.75;;;3.00;;
7879;SDS011;3985;49.366;2.738;2023-02-01T03:27:05;4.25;;;4.25;;
7879;SDS011;3985;49.366;2.738;2023-02-01T03:29:38;8.25;;;3.00;;
7879;SDS011;3985;49.366;2.738;2023-02-01T03:32:08;5.50;;;3.50;;
7879;SDS011;3985;49.366;2.738;2023-02-01T03:34:36;6.50;;;5.00;;
7879;SDS011;3985;49.366;2.738;2023-02-01T03:37:08;5.75;;;2.75;;
7879;SDS011;3985;49.366;2.738;2023-02-01T03:39:38;2.75;;;2.75;;
7879;SDS011;3985;49.366;2.738;2023-02-01T03:42:09;7.00;;;6.00;;
7879;SDS011;3985;49.366;2.738;2023-02-01T03:44:40;9.25;;;4.25;;
7879;SDS011;3985;49.366;2.738;2023-02-01T03:47:15;6.00;;;5.50;;
7879;SDS011;3985;49.366;2.738;2023-02-01T03:49:46;7.25;;;3.50;;
7879;SDS011;3985;49.366;2.738;2023-02-01T03:52:18;5.00;;;3.00;;
7879;SDS011;3985;49.366;2.738;2023-02-01T03:54:49;7.50;;;6.00;;
7879;SDS011;3985;49.366;2.738;2023-02-01T03:57:22;7.25;;;5.50;;
7879;SDS011;3985;49.366;2.738;2023-02-01T03:59:52;4.50;;;2.50;;
7879;SDS011;3985;49.366;2.738;2023-02-01T04:02:21;4.75;;;3.00;;
7879;SDS011;3985;49.366;2.738;2023-02-01T04:04:48;5.50;;;2.75;;
7879;SDS011;3985;49.366;2.738;2023-02-01T04:07:18;7.00;;;7.00;;
7879;SDS011;3985;49.366;2.738;2023-02-01T04:09:45;9.00;;;2.25;;
7879;SDS011;3985;49.366;2.738;2023-02-01T04:12:13;3.00;;;3.00;;
7879;SDS011;3985;49.366;2.738;2023-02-01T04:14:40;2.00;;;0.75;;
7879;SDS011;3985;49.366;2.738;2023-02-01T04:17:08;5.50;;;5.50;;
7879;SDS011;3985;49.366;2.738;2023-02-01T04:19:36;4.00;;;4.00;;
7879;SDS011;3985;49.366;2.738;2023-02-01T04:22:03;9.50;;;6.00;;
7879;SDS011;3985;49.366;2.738;2023-02-01T04:24:32;5.00;;;5.00;;
7879;SDS011;3985;49.366;2.738;2023-02-01T04:27:01;2.75;;;2.75;;
7879;SDS011;3985;49.366;2.738;2023-02-01T04:29:29;5.00;;;5.00;;
7879;SDS011;3985;49.366;2.738;2023-02-01T04:31:56;5.00;;;5.00;;
7879;SDS011;3985;49.366;2.738;2023-02-01T04:34:24;3.00;;;3.00;;
7879;SDS011;3985;49.366;2.738;2023-02-01T04:36:51;6.00;;;5.00;;
7879;SDS011;3985;49.366;2.738;2023-02-01T04:39:19;8.75;;;6.75;;
7879;SDS011;3985;49.366;2.738;2023-02-01T04:41:48;5.00;;;4.50;;
7879;SDS011;3985;49.366;2.738;2023-02-01T04:44:16;7.00;;;6.75;;
7879;SDS011;3985;49.366;2.738;2023-02-01T04:46:45;5.00;;;5.00;;
7879;SDS011;3985;49.366;2.738;2023-02-01T04:49:14;5.25;;;3.00;;
7879;SDS011;3985;49.366;2.738;2023-02-01T04:51:42;5.25;;;5.00;;
7879;SDS011;3985;49.366;2.738;2023-02-01T04:54:10;7.25;;;5.00;;
7879;SDS011;3985;49.366;2.738;2023-02-01T04:56:38;3.50;;;3.50;;
7879;SDS011;3985;49.366;2.738;2023-02-01T04:59:07;6.75;;;3.50;;
7879;SDS011;3985;49.366;2.738;2023-02-01T05:01:36;7.25;;;2.00;;
7879;SDS011;3985;49.366;2.738;2023-02-01T05:04:04;3.00;;;3.00;;
7879;SDS011;3985;49.366;2.738;2023-02-01T05:06:31;3.50;;;3.50;;
7879;SDS011;3985;49.366;2.738;2023-02-01T05:08:59;4.25;;;2.75;;
7879;SDS011;3985;49.366;2.738;2023-02-01T05:11:26;7.00;;;3.00;;
7879;SDS011;3985;49.366;2.738;2023-02-01T05:14:12;3.25;;;2.25;;
7879;SDS011;3985;49.366;2.738;2023-02-01T05:16:40;4.50;;;4.50;;
7879;SDS011;3985;49.366;2.738;2023-02-01T05:19:07;4.50;;;2.50;;
7879;SDS011;3985;49.366;2.738;2023-02-01T05:21:35;5.50;;;2.00;;
7879;SDS011;3985;49.366;2.738;2023-02-01T05:24:03;7.00;;;2.00;;
7879;SDS011;3985;49.366;2.738;2023-02-01T05:26:38;1.75;;;1.75;;
7879;SDS011;3985;49.366;2.738;2023-02-01T05:29:07;2.00;;;2.00;;
7879;SDS011;3985;49.366;2.738;2023-02-01T05:31:36;5.25;;;4.00;;
7879;SDS011;3985;49.366;2.738;2023-02-01T05:34:05;6.00;;;3.25;;
7879;SDS011;3985;49.366;2.738;2023-02-01T05:36:32;5.75;;;2.50;;
7879;SDS011;3985;49.366;2.738;2023-02-01T05:39:00;3.00;;;1.25;;
7879;SDS011;3985;49.366;2.738;2023-02-01T05:41:27;2.25;;;2.25;;
7879;SDS011;3985;49.366;2.738;2023-02-01T05:43:55;5.25;;;3.25;;
7879;SDS011;3985;49.366;2.738;2023-02-01T05:46:22;3.00;;;3.00;;
7879;SDS011;3985;49.366;2.738;2023-02-01T05:48:51;3.75;;;2.00;;
7879;SDS011;3985;49.366;2.738;2023-02-01T05:51:22;24.25;;;17.00;;
7879;SDS011;3985;49.366;2.738;2023-02-01T05:53:50;13.00;;;9.50;;
7879;SDS011;3985;49.366;2.738;2023-02-01T05:56:17;18.00;;;18.00;;
7879;SDS011;3985;49.366;2.738;2023-02-01T05:58:45;11.50;;;9.75;;
7879;SDS011;3985;49.366;2.738;2023-02-01T06:01:12;7.00;;;5.50;;
7879;SDS011;3985;49.366;2.738;2023-02-01T06:03:40;7.50;;;7.50;;
7879;SDS011;3985;49.366;2.738;2023-02-01T06:06:09;4.50;;;3.25;;
7879;SDS011;3985;49.366;2.738;2023-02-01T06:08:36;4.00;;;2.00;;
7879;SDS011;3985;49.366;2.738;2023-02-01T06:11:05;6.75;;;3.00;;
7879;SDS011;3985;49.366;2.738;2023-02-01T06:13:33;3.75;;;2.50;;
7879;SDS011;3985;49.366;2.738;2023-02-01T06:16:02;2.75;;;2.25;;
7879;SDS011;3985;49.366;2.738;2023-02-01T06:18:33;2.25;;;2.25;;
7879;SDS011;3985;49.366;2.738;2023-02-01T06:21:02;3.00;;;3.00;;
7879;SDS011;3985;49.366;2.738;2023-02-01T06:23:32;2.50;;;2.50;;
7879;SDS011;3985;49.366;2.738;2023-02-01T06:26:00;3.75;;;2.50;;
7879;SDS011;3985;49.366;2.738;2023-02-01T06:28:29;6.00;;;6.00;;
7879;SDS011;3985;49.366;2.738;2023-02-01T06:30:57;6.75;;;2.75;;
7879;SDS011;3985;49.366;2.738;2023-02-01T06:33:31;5.25;;;3.25;;
7879;SDS011;3985;49.366;2.738;2023-02-01T06:35:59;8.00;;;2.00;;
7879;SDS011;3985;49.366;2.738;2023-02-01T06:38:28;10.75;;;5.25;;
7879;SDS011;3985;49.366;2.738;2023-02-01T06:40:58;7.50;;;6.50;;
7879;SDS011;3985;49.366;2.738;2023-02-01T06:43:26;8.00;;;5.50;;
7879;SDS011;3985;49.366;2.738;2023-02-01T06:45:58;5.50;;;5.00;;
7879;SDS011;3985;49.366;2.738;2023-02-01T06:48:26;6.75;;;5.00;;
7879;SDS011;3985;49.366;2.738;2023-02-01T06:50:54;6.50;;;5.00;;
7879;SDS011;3985;49.366;2.738;2023-02-01T06:53:22;12.50;;;6.50;;
7879;SDS011;3985;49.366;2.738;2023-02-01T06:55:53;5.50;;;5.00;;
7879;SDS011;3985;49.366;2.738;2023-02-01T06:58:23;10.50;;;7.50;;
7879;SDS011;3985;49.366;2.738;2023-02-01T07:00:50;6.00;;;3.00;;
7879;SDS011;3985;49.366;2.738;2023-02-01T07:03:18;7.00;;;5.75;;
7879;SDS011;3985;49.366;2.738;2023-02-01T07:05:46;8.50;;;6.50;;
7879;SDS011;3985;49.366;2.738;2023-02-01T07:08:13;16.50;;;11.50;;
7879;SDS011;3985;49.366;2.738;2023-02-01T07:10:41;8.00;;;8.00;;
7879;SDS011;3985;49.366;2.738;2023-02-01T07:13:08;16.50;;;15.00;;
7879;SDS011;3985;49.366;2.738;2023-02-01T07:15:37;19.50;;;15.50;;
7879;SDS011;3985;49.366;2.738;2023-02-01T07:18:04;15.25;;;11.75;;
7879;SDS011;3985;49.366;2.738;2023-02-01T07:20:32;15.50;;;11.00;;
7879;SDS011;3985;49.366;2.738;2023-02-01T07:22:59;15.25;;;11.25;;
7879;SDS011;3985;49.366;2.738;2023-02-01T07:25:27;14.75;;;12.00;;
7879;SDS011;3985;49.366;2.738;2023-02-01T07:27:54;20.75;;;13.75;;
7879;SDS011;3985;49.366;2.738;2023-02-01T07:30:22;21.00;;;19.75;;
7879;SDS011;3985;49.366;2.738;2023-02-01T07:32:52;21.25;;;20.75;;
7879;SDS011;3985;49.366;2.738;2023-02-01T07:35:20;54.50;;;39.50;;
7879;SDS011;3985;49.366;2.738;2023-02-01T07:37:47;33.75;;;33.50;;
7879;SDS011;3985;49.366;2.738;2023-02-01T07:40:15;46.50;;;39.50;;
7879;SDS011;3985;49.366;2.738;2023-02-01T07:42:43;33.75;;;30.75;;
7879;SDS011;3985;49.366;2.738;2023-02-01T07:45:10;30.00;;;28.75;;
7879;SDS011;3985;49.366;2.738;2023-02-01T07:47:40;23.50;;;18.25;;
7879;SDS011;3985;49.366;2.738;2023-02-01T07:50:09;31.75;;;25.25;;
7879;SDS011;3985;49.366;2.738;2023-02-01T07:52:37;25.50;;;19.00;;
7879;SDS011;3985;49.366;2.738;2023-02-01T07:55:05;29.00;;;20.75;;
7879;SDS011;3985;49.366;2.738;2023-02-01T07:57:33;10.00;;;9.00;;
7879;SDS011;3985;49.366;2.738;2023-02-01T08:00:00;6.50;;;5.75;;
7879;SDS011;3985;49.366;2.738;2023-02-01T08:02:45;7.75;;;6.50;;
7879;SDS011;3985;49.366;2.738;2023-02-01T08:05:14;9.00;;;5.75;;
7879;SDS011;3985;49.366;2.738;2023-02-01T08:07:42;14.00;;;6.75;;
7879;SDS011;3985;49.366;2.738;2023-02-01T08:10:09;9.00;;;6.75;;
7879;SDS011;3985;49.366;2.738;2023-02-01T08:12:37;8.00;;;7.75;;
7879;SDS011;3985;49.366;2.738;2023-02-01T08:15:06;8.25;;;6.00;;
7879;SDS011;3985;49.366;2.738;2023-02-01T08:17:34;9.00;;;4.50;;
7879;SDS011;3985;49.366;2.738;2023-02-01T08:20:01;7.75;;;6.00;;
7879;SDS011;3985;49.366;2.738;2023-02-01T08:22:32;10.50;;;7.25;;
7879;SDS011;3985;49.366;2.738;2023-02-01T08:25:00;7.50;;;7.50;;
7879;SDS011;3985;49.366;2.738;2023-02-01T08:27:27;7.00;;;7.00;;
7879;SDS011;3985;49.366;2.738;2023-02-01T08:29:55;9.75;;;6.00;;
7879;SDS011;3985;49.366;2.738;2023-02-01T08:32:22;5.25;;;4.00;;
7879;SDS011;3985;49.366;2.738;2023-02-01T08:34:50;8.75;;;5.25;;
7879;SDS011;3985;49.366;2.738;2023-02-01T08:37:17;8.00;;;6.00;;
7879;SDS011;3985;49.366;2.738;2023-02-01T08:39:46;6.75;;;6.75;;
7879;SDS011;3985;49.366;2.738;2023-02-01T08:42:15;7.00;;;4.00;;
7879;SDS011;3985;49.366;2.738;2023-02-01T08:45:00;7.50;;;3.00;;
7879;SDS011;3985;49.366;2.738;2023-02-01T08:47:27;5.75;;;3.00;;
7879;SDS011;3985;49.366;2.738;2023-02-01T08:49:55;3.00;;;3.00;;
7879;SDS011;3985;49.366;2.738;2023-02-01T08:52:23;6.00;;;3.50;;
7879;SDS011;3985;49.366;2.738;2023-02-01T08:54:51;11.00;;;6.75;;
7879;SDS011;3985;49.366;2.738;2023-02-01T08:57:19;5.00;;;4.00;;
7879;SDS011;3985;49.366;2.738;2023-02-01T08:59:46;4.00;;;4.00;;
7879;SDS011;3985;49.366;2.738;2023-02-01T09:02:14;8.00;;;4.00;;
7879;SDS011;3985;49.366;2.738;2023-02-01T09:04:42;5.00;;;3.00;;
7879;SDS011;3985;49.366;2.738;2023-02-01T09:07:10;7.00;;;4.50;;
7879;SDS011;3985;49.366;2.738;2023-02-01T09:09:38;8.00;;;4.00;;
7879;SDS011;3985;49.366;2.738;2023-02-01T09:12:07;3.50;;;3.50;;
7879;SDS011;3985;49.366;2.738;2023-02-01T09:14:34;9.25;;;5.50;;
7879;SDS011;3985;49.366;2.738;2023-02-01T09:17:01;8.50;;;7.00;;
7879;SDS011;3985;49.366;2.738;2023-02-01T09:19:30;5.00;;;3.00;;
7879;SDS011;3985;49.366;2.738;2023-02-01T09:21:57;4.00;;;3.00;;
7879;SDS011;3985;49.366;2.738;2023-02-01T09:24:25;9.00;;;3.75;;
7879;SDS011;3985;49.366;2.738;2023-02-01T09:26:52;9.50;;;6.00;;
7879;SDS011;3985;49.366;2.738;2023-02-01T09:29:21;6.00;;;3.00;;
7879;SDS011;3985;49.366;2.738;2023-02-01T09:31:49;6.00;;;3.00;;
7879;SDS011;3985;49.366;2.738;2023-02-01T09:34:16;8.75;;;4.00;;
7879;SDS011;3985;49.366;2.738;2023-02-01T09:36:43;6.00;;;3.00;;
7879;SDS011;3985;49.366;2.738;2023-02-01T09:39:11;4.00;;;3.00;;
7879;SDS011;3985;49.366;2.738;2023-02-01T09:41:42;3.25;;;3.25;;
7879;SDS011;3985;49.366;2.738;2023-02-01T09:44:19;8.50;;;6.00;;
7879;SDS011;3985;49.366;2.738;2023-02-01T09:47:16;4.00;;;4.00;;
7879;SDS011;3985;49.366;2.738;2023-02-01T09:49:47;7.00;;;3.25;;
7879;SDS011;3985;49.366;2.738;2023-02-01T09:52:17;4.75;;;2.75;;
7879;SDS011;3985;49.366;2.738;2023-02-01T09:54:49;4.50;;;2.50;;
7879;SDS011;3985;49.366;2.738;2023-02-01T09:57:24;2.50;;;2.50;;
7879;SDS011;3985;49.366;2.738;2023-02-01T09:59:54;6.00;;;3.25;;
7879;SDS011;3985;49.366;2.738;2023-02-01T10:02:28;2.00;;;2.00;;
7879;SDS011;3985;49.366;2.738;2023-02-01T10:04:57;7.75;;;3.00;;
7879;SDS011;3985;49.366;2.738;2023-02-01T10:07:28;7.25;;;3.00;;
7879;SDS011;3985;49.366;2.738;2023-02-01T10:10:00;5.25;;;3.00;;
7879;SDS011;3985;49.366;2.738;2023-02-01T10:12:46;3.00;;;3.00;;
7879;SDS011;3985;49.366;2.738;2023-02-01T10:15:35;4.25;;;3.00;;
7879;SDS011;3985;49.366;2.738;2023-02-01T10:18:14;7.25;;;3.75;;
7879;SDS011;3985;49.366;2.738;2023-02-01T10:21:01;4.00;;;4.00;;
7879;SDS011;3985;49.366;2.738;2023-02-01T10:23:39;3.00;;;3.00;;
7879;SDS011;3985;49.366;2.738;2023-02-01T10:26:17;6.00;;;2.75;;
7879;SDS011;3985;49.366;2.738;2023-02-01T10:28:46;6.50;;;3.50;;
7879;SDS011;3985;49.366;2.738;2023-02-01T10:31:16;5.00;;;4.75;;
7879;SDS011;3985;49.366;2.738;2023-02-01T10:33:46;4.75;;;3.25;;
7879;SDS011;3985;49.366;2.738;2023-02-01T10:36:18;3.00;;;3.00;;
7879;SDS011;3985;49.366;2.738;2023-02-01T10:38:48;4.00;;;2.50;;
7879;SDS011;3985;49.366;2.738;2023-02-01T10:41:16;3.00;;;2.00;;
7879;SDS011;3985;49.366;2.738;2023-02-01T10:43:45;10.00;;;2.50;;
7879;SDS011;3985;49.366;2.738;2023-02-01T10:46:16;2.25;;;1.75;;
7879;SDS011;3985;49.366;2.738;2023-02-01T10:48:45;4.00;;;2.50;;
7879;SDS011;3985;49.366;2.738;2023-02-01T10:51:14;0.50;;;0.00;;
7879;SDS011;3985;49.366;2.738;2023-02-01T10:53:48;4.50;;;3.00;;
7879;SDS011;3985;49.366;2.738;2023-02-01T10:56:21;2.00;;;2.00;;
7879;SDS011;3985;49.366;2.738;2023-02-01T10:58:49;3.50;;;3.00;;
7879;SDS011;3985;49.366;2.738;2023-02-01T11:01:19;3.00;;;1.75;;
7879;SDS011;3985;49.366;2.738;2023-02-01T11:03:53;3.75;;;2.25;;
7879;SDS011;3985;49.366;2.738;2023-02-01T11:06:28;4.75;;;4.00;;
7879;SDS011;3985;49.366;2.738;2023-02-01T11:08:57;4.00;;;4.00;;
7879;SDS011;3985;49.366;2.738;2023-02-01T11:11:26;4.50;;;3.00;;
7879;SDS011;3985;49.366;2.738;2023-02-01T11:13:55;3.00;;;1.75;;
7879;SDS011;3985;49.366;2.738;2023-02-01T11:16:28;3.50;;;0.25;;
7879;SDS011;3985;49.366;2.738;2023-02-01T11:19:02;3.50;;;2.00;;
7879;SDS011;3985;49.366;2.738;2023-02-01T11:21:30;2.00;;;2.00;;
7879;SDS011;3985;49.366;2.738;2023-02-01T11:24:00;3.25;;;3.25;;
7879;SDS011;3985;49.366;2.738;2023-02-01T11:26:28;3.00;;;1.75;;
7879;SDS011;3985;49.366;2.738;2023-02-01T11:28:58;3.00;;;3.00;;
7879;SDS011;3985;49.366;2.738;2023-02-01T11:31:27;3.25;;;2.75;;
7879;SDS011;3985;49.366;2.738;2023-02-01T11:34:04;1.50;;;1.50;;
7879;SDS011;3985;49.366;2.738;2023-02-01T11:36:34;3.50;;;3.50;;
7879;SDS011;3985;49.366;2.738;2023-02-01T11:39:18;9.00;;;3.00;;
7879;SDS011;3985;49.366;2.738;2023-02-01T11:42:00;5.00;;;3.00;;
7879;SDS011;3985;49.366;2.738;2023-02-01T11:44:31;3.00;;;1.00;;
7879;SDS011;3985;49.366;2.738;2023-02-01T11:49:55;2.75;;;2.00;;
7879;SDS011;3985;49.366;2.738;2023-02-01T11:52:28;3.00;;;3.00;;
7879;SDS011;3985;49.366;2.738;2023-02-01T11:58:18;7.25;;;3.75;;
7879;SDS011;3985;49.366;2.738;2023-02-01T12:01:01;5.00;;;3.00;;
7879;SDS011;3985;49.366;2.738;2023-02-01T12:03:51;2.00;;;2.00;;
7879;SDS011;3985;49.366;2.738;2023-02-01T12:06:42;2.50;;;2.50;;
7879;SDS011;3985;49.366;2.738;2023-02-01T12:09:19;3.00;;;3.00;;
7879;SDS011;3985;49.366;2.738;2023-02-01T12:11:58;4.00;;;4.00;;
7879;SDS011;3985;49.366;2.738;2023-02-01T12:14:37;3.25;;;2.00;;
7879;SDS011;3985;49.366;2.738;2023-02-01T12:17:18;7.25;;;3.00;;
7879;SDS011;3985;49.366;2.738;2023-02-01T12:20:15;3.50;;;2.00;;
7879;SDS011;3985;49.366;2.738;2023-02-01T12:23:10;3.50;;;2.00;;
7879;SDS011;3985;49.366;2.738;2023-02-01T12:25:52;4.00;;;3.00;;
7879;SDS011;3985;49.366;2.738;2023-02-01T12:28:29;3.50;;;3.50;;
7879;SDS011;3985;49.366;2.738;2023-02-01T12:34:03;10.25;;;4.25;;
7879;SDS011;3985;49.366;2.738;2023-02-01T12:36:44;2.50;;;2.25;;
7879;SDS011;3985;49.366;2.738;2023-02-01T12:39:21;6.75;;;4.00;;
7879;SDS011;3985;49.366;2.738;2023-02-01T12:41:52;4.50;;;2.75;;
7879;SDS011;3985;49.366;2.738;2023-02-01T12:44:28;4.00;;;3.25;;
7879;SDS011;3985;49.366;2.738;2023-02-01T12:47:12;4.75;;;4.00;;
7879;SDS011;3985;49.366;2.738;2023-02-01T12:49:52;3.00;;;3.00;;
7879;SDS011;3985;49.366;2.738;2023-02-01T12:52:24;4.75;;;3.75;;
7879;SDS011;3985;49.366;2.738;2023-02-01T12:55:03;12.50;;;4.25;;
7879;SDS011;3985;49.366;2.738;2023-02-01T12:57:35;4.75;;;3.50;;
7879;SDS011;3985;49.366;2.738;2023-02-01T13:00:07;6.50;;;4.00;;
7879;SDS011;3985;49.366;2.738;2023-02-01T13:02:48;4.50;;;4.50;;
7879;SDS011;3985;49.366;2.738;2023-02-01T13:05:19;8.25;;;4.25;;
7879;SDS011;3985;49.366;2.738;2023-02-01T13:07:50;9.00;;;3.25;;
7879;SDS011;3985;49.366;2.738;2023-02-01T13:10:24;4.50;;;3.00;;
7879;SDS011;3985;49.366;2.738;2023-02-01T13:12:57;5.25;;;2.25;;
7879;SDS011;3985;49.366;2.738;2023-02-01T13:15:29;7.50;;;3.50;;
7879;SDS011;3985;49.366;2.738;2023-02-01T13:18:00;4.00;;;4.00;;
7879;SDS011;3985;49.366;2.738;2023-02-01T13:20:30;3.00;;;3.00;;
7879;SDS011;3985;49.366;2.738;2023-02-01T13:23:01;3.00;;;3.00;;
7879;SDS011;3985;49.366;2.738;2023-02-01T13:25:34;8.00;;;4.50;;
7879;SDS011;3985;49.366;2.738;2023-02-01T13:28:05;3.00;;;3.00;;
7879;SDS011;3985;49.366;2.738;2023-02-01T13:30:41;7.00;;;3.00;;
7879;SDS011;3985;49.366;2.738;2023-02-01T13:33:40;3.50;;;3.50;;
7879;SDS011;3985;49.366;2.738;2023-02-01T13:36:23;4.25;;;3.00;;
7879;SDS011;3985;49.366;2.738;2023-02-01T13:39:11;4.75;;;2.75;;
7879;SDS011;3985;49.366;2.738;2023-02-01T13:42:04;7.00;;;4.00;;
7879;SDS011;3985;49.366;2.738;2023-02-01T13:44:39;6.00;;;3.00;;
7879;SDS011;3985;49.366;2.738;2023-02-01T13:47:11;2.00;;;2.00;;
7879;SDS011;3985;49.366;2.738;2023-02-01T13:49:43;5.00;;;3.00;;
7879;SDS011;3985;49.366;2.738;2023-02-01T13:52:21;3.00;;;3.00;;
7879;SDS011;3985;49.366;2.738;2023-02-01T13:55:02;2.00;;;2.00;;
7879;SDS011;3985;49.366;2.738;2023-02-01T13:57:42;8.50;;;2.75;;
7879;SDS011;3985;49.366;2.738;2023-02-01T14:00:22;0.00;;;0.00;;
7879;SDS011;3985;49.366;2.738;2023-02-01T14:05:55;3.75;;;2.00;;
7879;SDS011;3985;49.366;2.738;2023-02-01T14:08:38;6.50;;;2.00;;
7879;SDS011;3985;49.366;2.738;2023-02-01T14:11:30;3.50;;;2.75;;
7879;SDS011;3985;49.366;2.738;2023-02-01T14:23:21;2.50;;;2.00;;
7879;SDS011;3985;49.366;2.738;2023-02-01T14:26:08;2.00;;;2.00;;
7879;SDS011;3985;49.366;2.738;2023-02-01T14:28:42;2.00;;;2.00;;
7879;SDS011;3985;49.366;2.738;2023-02-01T14:31:15;3.33;;;1.67;;
7879;SDS011;3985;49.366;2.738;2023-02-01T14:33:58;2.00;;;2.00;;
7879;SDS011;3985;49.366;2.738;2023-02-01T14:36:32;2.00;;;2.00;;
7879;SDS011;3985;49.366;2.738;2023-02-01T14:39:17;1.25;;;1.25;;
7879;SDS011;3985;49.366;2.738;2023-02-01T14:41:46;2.75;;;1.00;;
7879;SDS011;3985;49.366;2.738;2023-02-01T14:44:22;3.25;;;2.00;;
7879;SDS011;3985;49.366;2.738;2023-02-01T14:47:07;1.25;;;1.25;;
7879;SDS011;3985;49.366;2.738;2023-02-01T14:50:02;1.00;;;0.67;;
7879;SDS011;3985;49.366;2.738;2023-02-01T14:52:46;2.00;;;2.00;;
7879;SDS011;3985;49.366;2.738;2023-02-01T14:55:16;3.50;;;2.00;;
7879;SDS011;3985;49.366;2.738;2023-02-01T14:57:48;2.00;;;2.00;;
7879;SDS011;3985;49.366;2.738;2023-02-01T15:00:19;2.50;;;2.00;;
7879;SDS011;3985;49.366;2.738;2023-02-01T15:02:49;3.00;;;1.25;;
7879;SDS011;3985;49.366;2.738;2023-02-01T15:05:23;5.00;;;2.00;;
7879;SDS011;3985;49.366;2.738;2023-02-01T15:07:56;4.25;;;2.25;;
7879;SDS011;3985;49.366;2.738;2023-02-01T15:10:26;2.00;;;2.00;;
7879;SDS011;3985;49.366;2.738;2023-02-01T15:12:54;3.50;;;2.00;;
7879;SDS011;3985;49.366;2.738;2023-02-01T15:15:22;3.25;;;2.75;;
7879;SDS011;3985;49.366;2.738;2023-02-01T15:17:52;1.00;;;1.00;;
7879;SDS011;3985;49.366;2.738;2023-02-01T15:20:20;3.00;;;3.00;;
7879;SDS011;3985;49.366;2.738;2023-02-01T15:22:57;4.00;;;3.00;;
7879;SDS011;3985;49.366;2.738;2023-02-01T15:25:26;1.75;;;1.75;;
7879;SDS011;3985;49.366;2.738;2023-02-01T15:27:55;3.50;;;2.50;;
7879;SDS011;3985;49.366;2.738;2023-02-01T15:30:24;5.50;;;2.00;;
7879;SDS011;3985;49.366;2.738;2023-02-01T15:33:03;2.00;;;2.00;;
7879;SDS011;3985;49.366;2.738;2023-02-01T15:35:35;3.00;;;2.00;;
7879;SDS011;3985;49.366;2.738;2023-02-01T15:38:18;5.00;;;2.00;;
7879;SDS011;3985;49.366;2.738;2023-02-01T15:40:57;1.00;;;1.00;;
7879;SDS011;3985;49.366;2.738;2023-02-01T15:43:26;1.25;;;1.25;;
7879;SDS011;3985;49.366;2.738;2023-02-01T15:45:55;3.00;;;3.00;;
7879;SDS011;3985;49.366;2.738;2023-02-01T15:48:24;4.25;;;2.00;;
7879;SDS011;3985;49.366;2.738;2023-02-01T15:50:55;5.50;;;4.00;;
7879;SDS011;3985;49.366;2.738;2023-02-01T15:53:25;2.75;;;1.00;;
7879;SDS011;3985;49.366;2.738;2023-02-01T15:55:56;2.25;;;1.00;;
7879;SDS011;3985;49.366;2.738;2023-02-01T15:58:26;4.25;;;2.00;;
7879;SDS011;3985;49.366;2.738;2023-02-01T16:00:54;1.00;;;1.00;;
7879;SDS011;3985;49.366;2.738;2023-02-01T16:03:25;2.75;;;2.00;;
7879;SDS011;3985;49.366;2.738;2023-02-01T16:05:57;1.00;;;1.00;;
7879;SDS011;3985;49.366;2.738;2023-02-01T16:08:25;2.00;;;1.00;;
7879;SDS011;3985;49.366;2.738;2023-02-01T16:10:59;4.00;;;2.25;;
7879;SDS011;3985;49.366;2.738;2023-02-01T16:13:27;3.25;;;2.00;;